Alabama Port, Alabama
Current Conditions -  °F | °C
As of 6:53 AM on Saturday 20 Dec 2014 (Local Time) from KBFM Reporting Station
Light Rain Light Rain  
Wind Chill: 44°   Ceiling: 700
Heat Index: 48°   Visibility: 5mi
Dew Point: 46°   Wind: 9mph
Humidity: 93%   Direction: 360°N
Pressure: 30.15"   Gusts: NA
Location:  30.4032°N, 88.1801°W
Report Text: KBFM 201253Z 36008KT 5SM -RA BR OVC007 09/08 A3015 RMK AO2 CIG 005V011 SLP210 P0006 T00890078
Loading
Personal Weather Stations






























Interactive Weather Map New forecast layout! Learn more

10-Day Weather Forecast

Advertisements
Track Severe Weather on mobile